Granville, NY (12832)

2:11 PM EDT on August 31, 2015 (GMT -0400)
Granville | | Change Station
CLOSE
Current Station
Personal Weather Station
Location: Granville, NY
Elevation: 417 ft
Nearby Weather Stations

Elev 417 ft 43.40 °N, 73.27 °W | Updated 7 minutes ago

Partly Cloudy
Partly Cloudy
85.2 °F
Feels Like 87 °F
N
1.0
Wind Variable Wind from WSW
Gusts 7.0 mph

Today
High -- | Low -- °F
--% Chance of Precip.
Yesterday
High -- | Low -- °F
Precip. -- in
6:15 AM 7:30 PM
Waning Gibbous, 94% visible
Pressure 29.92 in
Visibility 10.0 miles
Clouds Few 5500 ft
Scattered Clouds 7500 ft
Heat Index 87 °F
Dew Point 64 °F
Humidity 50%
Rainfall in
Snow Depth Not available.
UV 7 out of 12
Pollen 9.70 out of 12
Air Quality Not available.
Flu Activity Not available.
METAR KGFL 311753Z AUTO 28010G18KT 10SM FEW055 SCT075 30/16 A2993 RMK AO2 SLP131 T03000161 10300 20183 58017
Pressure 29.92 in
Visibility 10.0 miles
Clouds Few 5500 ft
Scattered Clouds 7500 ft
Heat Index 87 °F
Dew Point 64 °F
Humidity 50%
Rainfall in
Snow Depth Not available.
UV 7 out of 12
Pollen 9.70 out of 12
Air Quality Not available.
Flu Activity Not available.
METAR KGFL 311753Z AUTO 28010G18KT 10SM FEW055 SCT075 30/16 A2993 RMK AO2 SLP131 T03000161 10300 20183 58017

10-Day Weather Forecast

×

Almanac

Astronomy

Aug. 31, 2015 Rise Set
Actual Time
Civil Twilight
Nautical Twilight
Astronomical Twilight
Moon
Length of Visible Light
Length of Day
Tomorrow will be .
, % of the Moon is Illuminated

Today's Extremes

State Highs State Lows

Community

WunderPhotos

Upload Photos

1,851,327 photos uploaded!

WunderBlogs® & News

Nearby

Air Quality

  Air Quality AQ Index Pollutant
Not available.

Snow Depth

Station Depth Elevation

Earthquake Activity

City Distance Mag. Time & Date
Minimum magnitude displayed is 2.5.

Coastal Water Temperatures

Place Temperature

Stations

Nearby Weather Stations

Station Location Temp. Windchill Dew Point Humidity Wind Precip. Elev Updated Type